Sign in

Advertising

Info

Aviation weather - KDAB

METAR KDAB 272153Z 07007KT 10SM FEW025TCU FEW150 29/23 A2989 RMK AO2 LTG DSNT SW SLP120 TCU S-SW CB DSNT S SW T02890228

TAF KDAB 271734Z 2718/2818 29004KT P6SM SCT030 FM272000 05007KT P6SM VCSH SCT035 FM280000 22003KT P6SM FEW030 SCT250 FM280400 25003KT P6SM FEW250 FM281400 24006KT P6SM SCT025

Aviation weather from ADDS. Re-check weather before flight.

-